createdAt,value
2019-05-28T00:00:04.204Z,15.30
2019-05-28T00:01:04.620Z,15.30
2019-05-28T00:02:04.712Z,15.30
2019-05-28T00:03:04.746Z,15.30
2019-05-28T00:04:09.618Z,15.30
2019-05-28T00:05:04.969Z,15.30
2019-05-28T00:06:04.273Z,15.30
2019-05-28T00:07:04.272Z,15.30
2019-05-28T00:08:04.499Z,15.30
2019-05-28T00:09:04.797Z,15.30
2019-05-28T00:10:05.447Z,15.30
2019-05-28T00:11:04.948Z,15.30
2019-05-28T00:12:04.972Z,15.30
2019-05-28T00:13:04.665Z,15.20
2019-05-28T00:14:04.976Z,15.20
2019-05-28T00:15:05.144Z,15.20
2019-05-28T00:16:04.201Z,15.20
2019-05-28T00:17:04.494Z,15.20
2019-05-28T00:18:04.628Z,15.20
2019-05-28T00:19:05.192Z,15.20
2019-05-28T00:20:05.231Z,15.20
2019-05-28T00:21:04.209Z,15.20
2019-05-28T00:22:04.652Z,15.20
2019-05-28T00:23:04.725Z,15.20
2019-05-28T00:24:04.276Z,15.20
2019-05-28T00:25:04.362Z,15.20
2019-05-28T00:26:04.885Z,15.20
2019-05-28T00:27:04.323Z,15.20
2019-05-28T00:28:04.446Z,15.20
2019-05-28T00:29:04.677Z,15.20
2019-05-28T00:30:18.380Z,15.10
2019-05-28T00:31:04.392Z,15.10
2019-05-28T00:32:04.299Z,15.20
2019-05-28T00:33:04.805Z,15.10
2019-05-28T00:34:04.303Z,15.20
2019-05-28T00:35:04.862Z,15.20
2019-05-28T00:36:05.018Z,15.10
2019-05-28T00:37:04.645Z,15.20
2019-05-28T00:38:05.228Z,15.10
2019-05-28T00:39:04.643Z,15.10
2019-05-28T00:40:04.748Z,15.10
2019-05-28T00:41:04.829Z,15.10
2019-05-28T00:42:04.907Z,15.10
2019-05-28T00:43:04.973Z,15.10
2019-05-28T00:44:10.072Z,15.10
2019-05-28T00:45:04.594Z,15.10
2019-05-28T00:46:04.705Z,15.10
2019-05-28T00:47:04.793Z,15.10
2019-05-28T00:48:04.299Z,15.10
2019-05-28T00:49:04.359Z,15.10
2019-05-28T00:50:05.030Z,15.10
2019-05-28T00:51:04.349Z,15.10
2019-05-28T00:52:04.490Z,15.10
2019-05-28T00:53:04.480Z,15.10
2019-05-28T00:54:04.541Z,15.10
2019-05-28T00:55:04.689Z,15.10
2019-05-28T00:56:04.642Z,15.10
2019-05-28T00:57:04.619Z,15.10
2019-05-28T00:58:04.651Z,15.10
2019-05-28T00:59:04.761Z,15.10
2019-05-28T01:00:04.933Z,15.10
2019-05-28T01:01:05.103Z,15.10
2019-05-28T01:02:05.043Z,15.10
2019-05-28T01:03:04.569Z,15.10
2019-05-28T01:04:04.713Z,15.10
2019-05-28T01:05:04.287Z,15.00
2019-05-28T01:06:04.258Z,15.10
2019-05-28T01:07:04.525Z,15.00
2019-05-28T01:08:05.021Z,15.00
2019-05-28T01:09:04.560Z,15.00
2019-05-28T01:10:04.979Z,15.00
2019-05-28T01:11:04.224Z,15.00
2019-05-28T01:12:04.357Z,15.00
2019-05-28T01:13:04.676Z,15.00
2019-05-28T01:14:05.174Z,15.00
2019-05-28T01:15:05.154Z,15.00
2019-05-28T01:16:04.224Z,15.00
2019-05-28T01:17:04.446Z,15.00
2019-05-28T01:18:04.385Z,15.00
2019-05-28T01:19:04.490Z,15.00
2019-05-28T01:20:05.062Z,15.00
2019-05-28T01:21:05.158Z,15.00
2019-05-28T01:22:04.293Z,15.00
2019-05-28T01:23:04.325Z,15.00
2019-05-28T01:24:04.907Z,15.00
2019-05-28T01:25:04.535Z,15.00
2019-05-28T01:26:04.823Z,15.00
2019-05-28T01:27:04.984Z,15.00
2019-05-28T01:29:05.042Z,15.00
2019-05-28T01:30:05.077Z,15.00
2019-05-28T01:31:04.321Z,15.00
2019-05-28T01:32:04.505Z,15.00
2019-05-28T01:33:04.702Z,15.00
2019-05-28T01:34:05.011Z,15.00
2019-05-28T01:35:04.277Z,15.00
2019-05-28T01:36:04.956Z,15.00
2019-05-28T01:37:04.270Z,15.00
2019-05-28T01:38:08.140Z,15.00
2019-05-28T01:39:05.164Z,15.00
2019-05-28T01:40:04.210Z,15.00
2019-05-28T01:41:04.266Z,14.90
2019-05-28T01:42:05.122Z,15.00
2019-05-28T01:43:04.601Z,15.00
2019-05-28T01:44:04.840Z,15.00
2019-05-28T01:45:04.260Z,15.00
2019-05-28T01:46:04.416Z,14.90
2019-05-28T01:47:04.924Z,15.00
2019-05-28T01:48:04.227Z,15.00
2019-05-28T01:49:04.285Z,14.90
2019-05-28T01:50:09.847Z,14.90
2019-05-28T01:51:04.367Z,14.90
2019-05-28T01:52:04.347Z,14.90
2019-05-28T01:53:04.553Z,14.90
2019-05-28T01:54:04.553Z,14.90
2019-05-28T01:55:04.655Z,14.90
2019-05-28T01:56:04.811Z,14.90
2019-05-28T01:57:04.809Z,14.90
2019-05-28T01:58:04.271Z,14.90
2019-05-28T01:59:04.844Z,14.90
2019-05-28T02:00:04.416Z,14.90
2019-05-28T02:01:12.509Z,14.90
2019-05-28T02:02:04.857Z,14.90
2019-05-28T02:03:04.334Z,14.90
2019-05-28T02:04:05.081Z,14.90
2019-05-28T02:05:05.150Z,14.90
2019-05-28T02:06:04.634Z,14.90
2019-05-28T02:07:04.707Z,14.90
2019-05-28T02:08:04.839Z,14.90
2019-05-28T02:09:04.764Z,14.90
2019-05-28T02:10:04.422Z,14.90
2019-05-28T02:11:04.597Z,14.90
2019-05-28T02:12:04.569Z,14.90
2019-05-28T02:13:04.846Z,14.90
2019-05-28T02:14:04.429Z,14.90
2019-05-28T02:15:04.422Z,14.90
2019-05-28T02:16:05.065Z,14.90
2019-05-28T02:17:04.519Z,14.80
2019-05-28T02:18:04.615Z,14.90
2019-05-28T02:19:04.983Z,14.90
2019-05-28T02:20:05.052Z,14.90
2019-05-28T02:21:04.291Z,14.90
2019-05-28T02:22:04.511Z,14.90
2019-05-28T02:23:04.831Z,14.80
2019-05-28T02:24:04.751Z,14.80
2019-05-28T02:25:04.563Z,14.80
2019-05-28T02:26:04.535Z,14.80
2019-05-28T02:27:05.015Z,14.80
2019-05-28T02:28:05.053Z,14.80
2019-05-28T02:29:04.320Z,14.80
2019-05-28T02:30:04.703Z,14.80
2019-05-28T02:31:05.166Z,14.80
2019-05-28T02:32:04.752Z,14.80
2019-05-28T02:33:04.986Z,14.80
2019-05-28T02:34:05.041Z,14.80
2019-05-28T02:35:04.366Z,14.80
2019-05-28T02:36:05.014Z,14.80
2019-05-28T02:37:04.219Z,14.80
2019-05-28T02:38:04.506Z,14.80
2019-05-28T02:39:04.559Z,14.80
2019-05-28T02:40:05.108Z,14.80
2019-05-28T02:41:04.216Z,14.80
2019-05-28T02:42:04.264Z,14.80
2019-05-28T02:43:04.362Z,14.80
2019-05-28T02:44:09.924Z,14.80
2019-05-28T02:45:04.327Z,14.80
2019-05-28T02:46:04.377Z,14.80
2019-05-28T02:47:05.001Z,14.80
2019-05-28T02:48:05.030Z,14.80
2019-05-28T02:49:05.093Z,14.80
2019-05-28T02:50:04.817Z,14.80
2019-05-28T02:51:05.008Z,14.80
2019-05-28T02:52:04.313Z,14.80
2019-05-28T02:53:04.840Z,14.80
2019-05-28T02:54:04.919Z,14.80
2019-05-28T02:55:04.355Z,14.80
2019-05-28T02:56:04.277Z,14.80
2019-05-28T02:57:04.636Z,14.80
2019-05-28T02:58:04.937Z,14.80
2019-05-28T02:59:04.351Z,14.80
2019-05-28T03:00:04.954Z,14.80
2019-05-28T03:01:04.333Z,14.70
2019-05-28T03:02:04.321Z,14.70
2019-05-28T03:03:04.537Z,14.70
2019-05-28T03:04:10.152Z,14.70
2019-05-28T03:05:04.520Z,14.70
2019-05-28T03:06:04.738Z,14.70
2019-05-28T03:07:05.138Z,14.70
2019-05-28T03:08:04.315Z,14.70
2019-05-28T03:09:04.297Z,14.70
2019-05-28T03:10:04.442Z,14.70
2019-05-28T03:11:04.778Z,14.70
2019-05-28T03:12:04.593Z,14.70
2019-05-28T03:13:04.636Z,14.70
2019-05-28T03:14:04.722Z,14.70
2019-05-28T03:15:04.290Z,14.70
2019-05-28T03:16:04.724Z,14.70
2019-05-28T03:17:04.447Z,14.70
2019-05-28T03:18:04.506Z,14.70
2019-05-28T03:19:04.848Z,14.70
2019-05-28T03:20:04.463Z,14.70
2019-05-28T03:21:04.518Z,14.70
2019-05-28T03:22:05.120Z,14.70
2019-05-28T03:23:04.239Z,14.70
2019-05-28T03:24:04.725Z,14.70
2019-05-28T03:25:04.871Z,14.70
2019-05-28T03:26:04.406Z,14.70
2019-05-28T03:27:04.652Z,14.70
2019-05-28T03:28:04.851Z,14.70
2019-05-28T03:29:04.440Z,14.70
2019-05-28T03:30:04.482Z,14.70
2019-05-28T03:31:04.769Z,14.60
2019-05-28T03:32:08.296Z,14.70
2019-05-28T03:33:04.227Z,14.60
2019-05-28T03:34:04.626Z,14.60
2019-05-28T03:35:04.688Z,14.60
2019-05-28T03:36:04.960Z,14.60
2019-05-28T03:37:05.172Z,14.60
2019-05-28T03:38:04.417Z,14.70
2019-05-28T03:39:04.548Z,14.60
2019-05-28T03:40:05.047Z,14.60
2019-05-28T03:41:05.146Z,14.60
2019-05-28T03:42:04.958Z,14.60
2019-05-28T03:43:04.542Z,14.60
2019-05-28T03:44:09.633Z,14.60
2019-05-28T03:45:05.036Z,14.60
2019-05-28T03:46:04.781Z,14.60
2019-05-28T03:47:04.465Z,14.60
2019-05-28T03:48:05.207Z,14.60
2019-05-28T03:49:04.316Z,14.60
2019-05-28T03:50:04.579Z,14.60
2019-05-28T03:51:05.249Z,14.60
2019-05-28T03:52:04.404Z,14.60
2019-05-28T03:53:04.807Z,14.60
2019-05-28T03:54:04.956Z,14.60
2019-05-28T03:55:04.407Z,14.60
2019-05-28T03:56:04.970Z,14.60
2019-05-28T03:57:04.891Z,14.60
2019-05-28T03:58:05.109Z,14.60
2019-05-28T03:59:04.203Z,14.60
2019-05-28T04:00:04.633Z,14.60
2019-05-28T04:01:05.307Z,14.60
2019-05-28T04:02:04.710Z,14.60
2019-05-28T04:03:04.811Z,14.60
2019-05-28T04:04:09.837Z,14.60
2019-05-28T04:05:04.201Z,14.60
2019-05-28T04:06:04.427Z,14.60
2019-05-28T04:07:04.524Z,14.60
2019-05-28T04:08:05.085Z,14.60
2019-05-28T04:09:04.264Z,14.60
2019-05-28T04:10:04.314Z,14.60
2019-05-28T04:11:04.860Z,14.60
2019-05-28T04:12:04.590Z,14.60
2019-05-28T04:13:05.024Z,14.60
2019-05-28T04:14:04.374Z,14.60
2019-05-28T04:15:04.788Z,14.60
2019-05-28T04:16:05.201Z,14.60
2019-05-28T04:17:04.261Z,14.60
2019-05-28T04:18:04.685Z,14.60
2019-05-28T04:19:04.826Z,14.60
2019-05-28T04:20:04.785Z,14.60
2019-05-28T04:21:04.633Z,14.60
2019-05-28T04:22:04.868Z,14.60
2019-05-28T04:23:04.991Z,14.60
2019-05-28T04:24:05.070Z,14.60
2019-05-28T04:25:05.386Z,14.60
2019-05-28T04:26:04.944Z,14.60
2019-05-28T04:27:04.430Z,14.60
2019-05-28T04:28:04.196Z,14.60
2019-05-28T04:29:04.999Z,14.60
2019-05-28T04:30:05.084Z,14.60
2019-05-28T04:31:05.297Z,14.60
2019-05-28T04:32:04.234Z,14.60
2019-05-28T04:33:04.804Z,14.60
2019-05-28T04:34:04.417Z,14.60
2019-05-28T04:35:04.447Z,14.60
2019-05-28T04:36:04.699Z,14.60
2019-05-28T04:37:05.160Z,14.60
2019-05-28T04:38:04.505Z,14.60
2019-05-28T04:39:04.333Z,14.60
2019-05-28T04:40:04.954Z,14.60
2019-05-28T04:41:05.012Z,14.60
2019-05-28T04:42:04.508Z,14.60
2019-05-28T04:43:04.887Z,14.60
2019-05-28T04:44:09.985Z,14.60
2019-05-28T04:45:04.372Z,14.60
2019-05-28T04:46:04.961Z,14.60
2019-05-28T04:47:07.623Z,14.60
2019-05-28T04:48:04.546Z,14.60
2019-05-28T04:49:05.199Z,14.60
2019-05-28T04:50:04.552Z,14.60
2019-05-28T04:51:05.048Z,14.60
2019-05-28T04:52:05.061Z,14.60
2019-05-28T04:53:04.674Z,14.60
2019-05-28T04:54:05.074Z,14.60
2019-05-28T04:55:04.620Z,14.60
2019-05-28T04:56:04.187Z,14.60
2019-05-28T04:57:04.494Z,14.60
2019-05-28T04:58:04.619Z,14.60
2019-05-28T04:59:05.158Z,14.60
2019-05-28T05:00:04.458Z,14.60
2019-05-28T05:01:04.607Z,14.60
2019-05-28T05:02:04.820Z,14.60
2019-05-28T05:03:05.093Z,14.60
2019-05-28T05:04:10.230Z,14.60
2019-05-28T05:05:04.683Z,14.60
2019-05-28T05:06:04.701Z,14.60
2019-05-28T05:07:05.040Z,14.60
2019-05-28T05:08:04.404Z,14.60
2019-05-28T05:09:04.528Z,14.60
2019-05-28T05:10:05.043Z,14.60
2019-05-28T05:11:05.083Z,14.60
2019-05-28T05:12:05.332Z,14.60
2019-05-28T05:13:04.425Z,14.60
2019-05-28T05:14:04.951Z,14.60
2019-05-28T05:15:04.492Z,14.60
2019-05-28T05:16:04.673Z,14.60
2019-05-28T05:17:04.300Z,14.60
2019-05-28T05:18:04.799Z,14.60
2019-05-28T05:19:05.077Z,14.60
2019-05-28T05:20:05.021Z,14.60
2019-05-28T05:21:04.212Z,14.60
2019-05-28T05:22:04.695Z,14.60
2019-05-28T05:23:04.223Z,14.70
2019-05-28T05:24:04.765Z,14.70
2019-05-28T05:25:05.155Z,14.70
2019-05-28T05:26:05.418Z,14.70
2019-05-28T05:27:04.276Z,14.70
2019-05-28T05:28:04.443Z,14.70
2019-05-28T05:29:05.513Z,14.70
2019-05-28T05:30:05.219Z,14.70
2019-05-28T05:31:04.530Z,14.70
2019-05-28T05:32:05.120Z,14.70
2019-05-28T05:33:18.999Z,14.80
2019-05-28T05:34:04.246Z,14.80
2019-05-28T05:35:04.488Z,14.80
2019-05-28T05:36:05.194Z,14.80
2019-05-28T05:37:04.287Z,14.80
2019-05-28T05:38:04.349Z,14.80
2019-05-28T05:39:04.515Z,14.80
2019-05-28T05:40:04.509Z,14.80
2019-05-28T05:41:05.344Z,14.80
2019-05-28T05:42:04.671Z,14.90
2019-05-28T05:43:04.750Z,14.90
2019-05-28T05:44:09.845Z,14.90
2019-05-28T05:45:07.454Z,14.90
2019-05-28T05:46:04.381Z,14.90
2019-05-28T05:47:05.111Z,14.90
2019-05-28T05:48:05.171Z,14.90
2019-05-28T05:49:04.304Z,14.90
2019-05-28T05:50:04.956Z,14.90
2019-05-28T05:51:04.689Z,14.90
2019-05-28T05:52:05.027Z,14.90
2019-05-28T05:53:04.892Z,14.90
2019-05-28T05:54:05.302Z,14.90
2019-05-28T05:55:04.836Z,14.90
2019-05-28T05:56:04.956Z,14.90
2019-05-28T05:57:04.568Z,14.90
2019-05-28T05:58:04.707Z,14.90
2019-05-28T05:59:04.962Z,15.00
2019-05-28T06:00:04.889Z,15.00
2019-05-28T06:01:04.339Z,15.00
2019-05-28T06:02:04.596Z,15.00
2019-05-28T06:03:04.554Z,15.00
2019-05-28T06:04:10.187Z,15.00
2019-05-28T06:05:04.597Z,15.00
2019-05-28T06:06:04.758Z,15.10
2019-05-28T06:07:04.731Z,15.10
2019-05-28T06:08:04.440Z,15.10
2019-05-28T06:09:04.929Z,15.10
2019-05-28T06:10:04.509Z,15.10
2019-05-28T06:11:04.386Z,15.20
2019-05-28T06:12:04.897Z,15.20
2019-05-28T06:13:05.315Z,15.20
2019-05-28T06:14:04.187Z,15.20
2019-05-28T06:15:04.947Z,15.20
2019-05-28T06:16:04.647Z,15.20
2019-05-28T06:17:04.733Z,15.20
2019-05-28T06:18:04.927Z,15.20
2019-05-28T06:19:08.100Z,15.20
2019-05-28T06:20:04.901Z,15.30
2019-05-28T06:21:11.577Z,15.30
2019-05-28T06:22:05.164Z,15.30
2019-05-28T06:23:04.487Z,15.30
2019-05-28T06:24:05.069Z,15.30
2019-05-28T06:25:05.124Z,15.30
2019-05-28T06:26:04.450Z,15.40
2019-05-28T06:27:04.526Z,15.40
2019-05-28T06:28:05.070Z,15.40
2019-05-28T06:29:05.111Z,15.40
2019-05-28T06:30:04.725Z,15.40
2019-05-28T06:31:04.345Z,15.40
2019-05-28T06:32:05.022Z,15.40
2019-05-28T06:33:04.812Z,15.50
2019-05-28T06:34:05.244Z,15.50
2019-05-28T06:35:04.941Z,15.50
2019-05-28T06:36:04.247Z,15.50
2019-05-28T06:37:04.334Z,15.50
2019-05-28T06:38:04.475Z,15.50
2019-05-28T06:39:05.144Z,15.50
2019-05-28T06:40:04.609Z,15.50
2019-05-28T06:41:05.177Z,15.50
2019-05-28T06:42:04.690Z,15.60
2019-05-28T06:43:04.703Z,15.60
2019-05-28T06:44:09.830Z,15.60
2019-05-28T06:45:04.517Z,15.60
2019-05-28T06:46:05.044Z,15.60
2019-05-28T06:47:04.681Z,15.60
2019-05-28T06:48:04.852Z,15.70
2019-05-28T06:49:04.788Z,15.70
2019-05-28T06:50:04.580Z,15.70
2019-05-28T06:51:05.023Z,15.70
2019-05-28T06:52:05.162Z,15.70
2019-05-28T06:53:04.186Z,15.70
2019-05-28T06:54:04.854Z,15.70
2019-05-28T06:55:04.946Z,15.70
2019-05-28T06:56:05.132Z,15.70
2019-05-28T06:57:19.961Z,15.80
2019-05-28T06:58:04.963Z,15.80
2019-05-28T06:59:04.637Z,15.80
2019-05-28T07:00:05.016Z,15.80
2019-05-28T07:01:04.685Z,15.80
2019-05-28T07:02:04.988Z,15.80
2019-05-28T07:03:05.174Z,15.90
2019-05-28T07:04:13.702Z,15.90
2019-05-28T07:05:04.571Z,15.90
2019-05-28T07:06:07.444Z,15.90
2019-05-28T07:07:04.556Z,15.90
2019-05-28T07:08:05.296Z,15.90
2019-05-28T07:09:04.573Z,15.90
2019-05-28T07:10:04.338Z,15.90
2019-05-28T07:11:04.769Z,15.90
2019-05-28T07:12:04.449Z,15.90
2019-05-28T07:13:05.004Z,15.90
2019-05-28T07:14:05.068Z,15.90
2019-05-28T07:15:04.147Z,15.90
2019-05-28T07:16:04.548Z,15.90
2019-05-28T07:17:05.081Z,15.90
2019-05-28T07:18:04.685Z,15.90
2019-05-28T07:19:04.313Z,15.90
2019-05-28T07:20:04.932Z,15.90
2019-05-28T07:21:04.654Z,15.90
2019-05-28T07:22:04.371Z,15.90
2019-05-28T07:23:04.534Z,15.90
2019-05-28T07:24:05.188Z,16.00
2019-05-28T07:25:04.968Z,16.00
2019-05-28T07:26:04.609Z,16.00
2019-05-28T07:27:05.097Z,16.00
2019-05-28T07:28:10.734Z,16.00
2019-05-28T07:29:04.633Z,16.10
2019-05-28T07:30:04.623Z,16.10
2019-05-28T07:31:04.840Z,16.10
2019-05-28T07:32:04.759Z,16.10
2019-05-28T07:33:04.943Z,16.10
2019-05-28T07:34:05.033Z,16.10
2019-05-28T07:35:04.596Z,16.10
2019-05-28T07:36:04.984Z,16.10
2019-05-28T07:37:04.408Z,16.10
2019-05-28T07:38:04.390Z,16.10
2019-05-28T07:39:04.699Z,16.10
2019-05-28T07:40:04.935Z,16.10
2019-05-28T07:41:04.210Z,16.10
2019-05-28T07:42:04.549Z,16.10
2019-05-28T07:43:04.576Z,16.10
2019-05-28T07:44:09.974Z,16.20
2019-05-28T07:45:04.377Z,16.20
2019-05-28T07:46:04.850Z,16.20
2019-05-28T07:47:04.728Z,16.20
2019-05-28T07:48:04.673Z,16.20
2019-05-28T07:49:04.943Z,16.20
2019-05-28T07:50:04.547Z,16.20
2019-05-28T07:51:05.293Z,16.20
2019-05-28T07:52:04.371Z,16.20
2019-05-28T07:53:04.850Z,16.20
2019-05-28T07:54:04.627Z,16.20
2019-05-28T07:55:04.732Z,16.20
2019-05-28T07:56:04.445Z,16.20
2019-05-28T07:57:04.559Z,16.20
2019-05-28T07:58:04.911Z,16.20
2019-05-28T07:59:05.221Z,16.20
2019-05-28T08:00:06.014Z,16.20
2019-05-28T08:01:05.060Z,16.20
2019-05-28T08:02:05.185Z,16.20
2019-05-28T08:03:04.375Z,16.20
2019-05-28T08:04:10.106Z,16.20
2019-05-28T08:05:04.468Z,16.30
2019-05-28T08:06:04.580Z,16.30
2019-05-28T08:07:05.024Z,16.30
2019-05-28T08:08:05.168Z,16.30
2019-05-28T08:09:04.709Z,16.40
2019-05-28T08:10:04.996Z,16.40
2019-05-28T08:11:05.040Z,16.40
2019-05-28T08:12:04.607Z,16.40
2019-05-28T08:13:04.836Z,16.50
2019-05-28T08:14:05.063Z,16.50
2019-05-28T08:15:04.235Z,16.50
2019-05-28T08:16:17.265Z,16.60
2019-05-28T08:17:04.726Z,16.60
2019-05-28T08:18:05.044Z,16.60
2019-05-28T08:19:04.615Z,16.60
2019-05-28T08:20:04.909Z,16.60
2019-05-28T08:21:04.265Z,16.70
2019-05-28T08:22:04.378Z,16.70
2019-05-28T08:23:04.627Z,16.70
2019-05-28T08:24:04.459Z,16.70
2019-05-28T08:25:04.579Z,16.70
2019-05-28T08:26:05.237Z,16.70
2019-05-28T08:27:04.872Z,16.70
2019-05-28T08:28:19.067Z,16.80
2019-05-28T08:29:05.130Z,16.70
2019-05-28T08:30:05.202Z,16.80
2019-05-28T08:31:14.477Z,16.70
2019-05-28T08:32:04.342Z,16.80
2019-05-28T08:33:05.051Z,16.80
2019-05-28T08:34:05.146Z,16.80
2019-05-28T08:35:06.112Z,16.80
2019-05-28T08:36:05.155Z,16.90
2019-05-28T08:37:06.126Z,16.90
2019-05-28T08:38:04.707Z,16.90
2019-05-28T08:39:04.921Z,16.90
2019-05-28T08:40:04.727Z,17.00
2019-05-28T08:41:04.400Z,17.00
2019-05-28T08:42:04.477Z,17.00
2019-05-28T08:43:04.665Z,17.10
2019-05-28T08:44:04.484Z,17.10
2019-05-28T08:45:04.662Z,17.10
2019-05-28T08:46:05.178Z,17.10
2019-05-28T08:47:04.565Z,17.10
2019-05-28T08:48:04.652Z,17.20
2019-05-28T08:49:04.777Z,17.20
2019-05-28T08:50:04.739Z,17.20
2019-05-28T08:51:04.955Z,17.20
2019-05-28T08:52:04.404Z,17.20
2019-05-28T08:53:04.534Z,17.30
2019-05-28T08:54:05.141Z,17.30
2019-05-28T08:55:04.437Z,17.30
2019-05-28T08:56:04.473Z,17.30
2019-05-28T08:57:09.764Z,17.30
2019-05-28T08:58:05.298Z,17.30
2019-05-28T08:59:04.282Z,17.30
2019-05-28T09:00:05.092Z,17.30
2019-05-28T09:01:04.394Z,17.30
2019-05-28T09:02:05.000Z,17.30
2019-05-28T09:03:06.205Z,17.30
2019-05-28T09:04:04.791Z,17.20
2019-05-28T09:05:22.960Z,17.20
2019-05-28T09:06:04.402Z,17.20
2019-05-28T09:07:04.726Z,17.20
2019-05-28T09:08:04.844Z,17.20
2019-05-28T09:09:04.816Z,17.10
2019-05-28T09:10:04.453Z,17.10
2019-05-28T09:11:04.593Z,17.10
2019-05-28T09:12:05.000Z,17.00
2019-05-28T09:13:04.270Z,17.00
2019-05-28T09:14:04.822Z,17.00
2019-05-28T09:15:04.826Z,16.90
2019-05-28T09:16:05.150Z,16.90
2019-05-28T09:17:04.661Z,16.90
2019-05-28T09:18:04.578Z,16.90
2019-05-28T09:19:05.050Z,17.00
2019-05-28T09:20:05.105Z,17.00
2019-05-28T09:21:05.374Z,17.00
2019-05-28T09:22:04.349Z,17.00
2019-05-28T09:23:04.710Z,17.00
2019-05-28T09:24:04.335Z,17.00
2019-05-28T09:25:04.470Z,17.00
2019-05-28T09:26:04.909Z,17.00
2019-05-28T09:27:04.982Z,17.00
2019-05-28T09:28:04.186Z,17.00
2019-05-28T09:29:04.545Z,17.10
2019-05-28T09:30:04.869Z,17.10
2019-05-28T09:31:04.978Z,17.10
2019-05-28T09:32:04.649Z,17.10
2019-05-28T09:33:05.059Z,17.10
2019-05-28T09:34:05.146Z,17.10
2019-05-28T09:35:04.983Z,17.10
2019-05-28T09:36:08.406Z,17.10
2019-05-28T09:37:05.069Z,17.10
2019-05-28T09:38:04.999Z,17.10
2019-05-28T09:39:05.095Z,17.10
2019-05-28T09:40:04.358Z,17.10
2019-05-28T09:41:05.806Z,17.10
2019-05-28T09:42:04.814Z,17.10
2019-05-28T09:43:05.181Z,17.00
2019-05-28T09:44:09.540Z,17.00
2019-05-28T09:45:21.241Z,17.10
2019-05-28T09:46:04.855Z,17.10
2019-05-28T09:47:05.041Z,17.10
2019-05-28T09:48:05.145Z,17.10
2019-05-28T09:49:04.258Z,17.10
2019-05-28T09:50:04.537Z,17.10
2019-05-28T09:51:04.698Z,17.10
2019-05-28T09:52:04.279Z,17.10
2019-05-28T09:53:05.057Z,17.10
2019-05-28T09:54:04.582Z,17.10
2019-05-28T09:55:05.002Z,17.20
2019-05-28T09:56:04.330Z,17.20
2019-05-28T09:57:04.494Z,17.20
2019-05-28T09:58:04.679Z,17.20
2019-05-28T09:59:04.776Z,17.20
2019-05-28T10:00:04.521Z,17.30
2019-05-28T10:01:04.720Z,17.30
2019-05-28T10:02:05.138Z,17.30
2019-05-28T10:03:04.567Z,17.30
2019-05-28T10:04:04.961Z,17.30
2019-05-28T10:05:05.175Z,17.30
2019-05-28T10:06:15.976Z,17.30
2019-05-28T10:07:04.712Z,17.30
2019-05-28T10:08:04.951Z,17.30
2019-05-28T10:09:05.126Z,17.40
2019-05-28T10:10:04.856Z,17.40
2019-05-28T10:11:04.901Z,17.40
2019-05-28T10:12:05.133Z,17.40
2019-05-28T10:13:04.374Z,17.40
2019-05-28T10:14:04.827Z,17.40
2019-05-28T10:15:04.677Z,17.40
2019-05-28T10:16:04.928Z,17.40
2019-05-28T10:17:05.155Z,17.40
2019-05-28T10:18:04.373Z,17.40
2019-05-28T10:19:04.281Z,17.40
2019-05-28T10:20:04.533Z,17.40
2019-05-28T10:21:17.407Z,17.40
2019-05-28T10:22:09.663Z,17.40
2019-05-28T10:23:05.107Z,17.40
2019-05-28T10:24:04.958Z,17.40
2019-05-28T10:25:04.782Z,17.40
2019-05-28T10:26:04.351Z,17.50
2019-05-28T10:27:04.874Z,17.50
2019-05-28T10:28:05.140Z,17.50
2019-05-28T10:29:04.774Z,17.50
2019-05-28T10:30:05.259Z,17.60
2019-05-28T10:31:04.375Z,17.60
2019-05-28T10:32:04.435Z,17.60
2019-05-28T10:33:04.848Z,17.60
2019-05-28T10:34:04.286Z,17.60
2019-05-28T10:35:04.616Z,17.70
2019-05-28T10:36:05.118Z,17.70
2019-05-28T10:37:04.324Z,17.70
2019-05-28T10:38:04.515Z,17.70
2019-05-28T10:39:04.700Z,17.70
2019-05-28T10:40:04.445Z,17.80
2019-05-28T10:41:04.475Z,17.80
2019-05-28T10:42:05.078Z,17.90
2019-05-28T10:43:04.708Z,17.90
2019-05-28T10:44:10.009Z,17.90
2019-05-28T10:45:04.528Z,18.00
2019-05-28T10:46:04.883Z,18.00
2019-05-28T10:47:04.970Z,18.00
2019-05-28T10:48:04.435Z,18.00
2019-05-28T10:49:04.829Z,18.00
2019-05-28T10:50:04.430Z,18.00
2019-05-28T10:51:04.711Z,18.00
2019-05-28T10:52:04.838Z,18.00
2019-05-28T10:53:04.503Z,18.00
2019-05-28T10:54:05.019Z,18.10
2019-05-28T10:55:04.459Z,18.10
2019-05-28T10:56:04.944Z,18.10
2019-05-28T10:57:05.104Z,18.10
2019-05-28T10:58:04.823Z,18.10
2019-05-28T10:59:04.571Z,18.20
2019-05-28T11:00:05.192Z,18.20
2019-05-28T11:01:04.198Z,18.20
2019-05-28T11:02:05.169Z,18.20
2019-05-28T11:03:04.557Z,18.30
2019-05-28T11:04:09.887Z,18.30
2019-05-28T11:05:04.367Z,18.30
2019-05-28T11:06:04.625Z,18.30
2019-05-28T11:07:04.945Z,18.30
2019-05-28T11:08:04.942Z,18.30
2019-05-28T11:09:08.566Z,18.30
2019-05-28T11:10:20.182Z,18.30
2019-05-28T11:11:05.109Z,18.40
2019-05-28T11:12:04.421Z,18.40
2019-05-28T11:13:05.021Z,18.40
2019-05-28T11:14:04.285Z,18.30
2019-05-28T11:15:04.575Z,18.30
2019-05-28T11:16:05.151Z,18.40
2019-05-28T11:17:05.176Z,18.30
2019-05-28T11:18:04.537Z,18.30
2019-05-28T11:19:05.019Z,18.30
2019-05-28T11:20:05.321Z,18.30
2019-05-28T11:21:08.994Z,18.30
2019-05-28T11:22:04.668Z,18.30
2019-05-28T11:23:04.975Z,18.30
2019-05-28T11:24:05.262Z,18.30
2019-05-28T11:25:04.396Z,18.30
2019-05-28T11:26:04.482Z,18.30
2019-05-28T11:27:04.545Z,18.30
2019-05-28T11:28:05.179Z,18.20
2019-05-28T11:29:04.366Z,18.20
2019-05-28T11:30:05.084Z,18.20
2019-05-28T11:31:05.173Z,18.20
2019-05-28T11:32:04.496Z,18.20
2019-05-28T11:33:04.697Z,18.20
2019-05-28T11:34:04.515Z,18.20
2019-05-28T11:35:04.825Z,18.20
2019-05-28T11:36:04.414Z,18.20
2019-05-28T11:37:09.290Z,18.20
2019-05-28T11:38:04.860Z,18.20
2019-05-28T11:39:04.968Z,18.20
2019-05-28T11:40:04.363Z,18.20
2019-05-28T11:41:05.148Z,18.20
2019-05-28T11:42:04.788Z,18.20
2019-05-28T11:43:04.345Z,18.20
2019-05-28T11:44:09.767Z,18.20
2019-05-28T11:45:04.627Z,18.10
2019-05-28T11:46:04.995Z,18.20
2019-05-28T11:47:04.672Z,18.20
2019-05-28T11:48:04.410Z,18.20
2019-05-28T11:49:04.546Z,18.20
2019-05-28T11:50:05.076Z,18.20
2019-05-28T11:51:04.815Z,18.20
2019-05-28T11:52:05.045Z,18.20
2019-05-28T11:53:04.641Z,18.20
2019-05-28T11:54:04.758Z,18.20
2019-05-28T11:55:05.300Z,18.20
2019-05-28T11:56:04.383Z,18.20
2019-05-28T11:57:04.922Z,18.20
2019-05-28T11:58:05.203Z,18.20
2019-05-28T11:59:04.255Z,18.20
2019-05-28T12:00:04.569Z,18.20
2019-05-28T12:01:04.979Z,18.20
2019-05-28T12:02:05.821Z,18.20
2019-05-28T12:03:04.849Z,18.20
2019-05-28T12:04:10.193Z,18.20
2019-05-28T12:05:05.375Z,18.20
2019-05-28T12:06:04.503Z,18.30
2019-05-28T12:07:04.898Z,18.30
2019-05-28T12:08:04.311Z,18.30
2019-05-28T12:09:04.740Z,18.30
2019-05-28T12:10:04.827Z,18.20
2019-05-28T12:11:04.525Z,18.20
2019-05-28T12:12:04.989Z,18.30
2019-05-28T12:13:05.122Z,18.30
2019-05-28T12:14:05.119Z,18.30
2019-05-28T12:15:05.113Z,18.30
2019-05-28T12:16:04.344Z,18.30
2019-05-28T12:17:04.534Z,18.30
2019-05-28T12:18:04.659Z,18.30
2019-05-28T12:19:04.705Z,18.30
2019-05-28T12:20:04.354Z,18.30
2019-05-28T12:21:04.490Z,18.30
2019-05-28T12:22:04.575Z,18.30
2019-05-28T12:23:10.846Z,18.30
2019-05-28T12:24:04.814Z,18.40
2019-05-28T12:25:04.499Z,18.40
2019-05-28T12:26:04.734Z,18.40
2019-05-28T12:27:04.844Z,18.40
2019-05-28T12:28:05.137Z,18.40
2019-05-28T12:29:04.408Z,18.40
2019-05-28T12:30:04.537Z,18.40
2019-05-28T12:31:04.769Z,18.40
2019-05-28T12:32:06.552Z,18.40
2019-05-28T12:33:04.971Z,18.40
2019-05-28T12:34:04.339Z,18.40
2019-05-28T12:35:04.693Z,18.40
2019-05-28T12:36:05.002Z,18.40
2019-05-28T12:37:04.635Z,18.40
2019-05-28T12:38:04.868Z,18.40
2019-05-28T12:39:05.014Z,18.40
2019-05-28T12:40:04.645Z,18.40
2019-05-28T12:41:04.215Z,18.40
2019-05-28T12:42:07.280Z,18.40
2019-05-28T12:43:04.288Z,18.40
2019-05-28T12:44:09.728Z,18.40
2019-05-28T12:45:09.228Z,18.40
2019-05-28T12:46:05.042Z,18.40
2019-05-28T12:47:05.207Z,18.40
2019-05-28T12:48:10.883Z,18.40
2019-05-28T12:49:04.482Z,18.40
2019-05-28T12:50:17.698Z,18.40
2019-05-28T12:51:04.413Z,18.40
2019-05-28T12:52:04.579Z,18.40
2019-05-28T12:53:04.942Z,18.50